createdAt,value
2023-03-02T00:02:23.861Z,29.52
2023-03-02T00:04:59.067Z,29.25
2023-03-02T00:07:37.239Z,29.95
2023-03-02T00:10:05.994Z,28.67
2023-03-02T00:12:36.539Z,28.98
2023-03-02T00:15:07.584Z,29.25
2023-03-02T00:17:37.319Z,29.17
2023-03-02T00:20:12.186Z,27.83
2023-03-02T00:22:45.079Z,27.27
2023-03-02T00:25:17.458Z,27.80
2023-03-02T00:27:45.767Z,29.23
2023-03-02T00:30:17.163Z,27.45
2023-03-02T00:32:47.296Z,29.27
2023-03-02T00:35:18.549Z,27.23
2023-03-02T00:37:48.627Z,29.70
2023-03-02T00:40:19.140Z,27.45
2023-03-02T00:42:49.237Z,28.02
2023-03-02T00:45:19.336Z,28.25
2023-03-02T00:47:49.480Z,27.23
2023-03-02T00:50:19.860Z,26.60
2023-03-02T00:52:49.917Z,27.52
2023-03-02T00:55:20.237Z,27.88
2023-03-02T00:57:55.316Z,26.88
2023-03-02T01:00:28.866Z,26.77
2023-03-02T01:02:59.212Z,29.05
2023-03-02T01:05:29.449Z,26.95
2023-03-02T01:07:59.504Z,26.00
2023-03-02T01:10:32.838Z,27.33
2023-03-02T01:13:01.623Z,25.90
2023-03-02T01:15:29.585Z,26.52
2023-03-02T01:17:58.761Z,25.17
2023-03-02T01:20:27.000Z,24.23
2023-03-02T01:22:55.691Z,26.50
2023-03-02T01:25:23.371Z,25.35
2023-03-02T01:27:51.678Z,25.40
2023-03-02T01:30:20.828Z,24.95
2023-03-02T01:32:50.939Z,26.25
2023-03-02T01:35:21.022Z,26.67
2023-03-02T01:37:51.088Z,24.50
2023-03-02T01:40:21.275Z,24.27
2023-03-02T01:43:04.726Z,25.25
2023-03-02T01:45:48.758Z,25.50
2023-03-02T01:48:47.318Z,25.38
2023-03-02T01:51:25.119Z,24.98
2023-03-02T01:54:08.661Z,23.88
2023-03-02T01:56:41.566Z,25.38
2023-03-02T01:59:20.840Z,23.58
2023-03-02T02:02:00.536Z,25.23
2023-03-02T02:04:38.078Z,26.02
2023-03-02T02:07:10.366Z,25.38
2023-03-02T02:09:49.070Z,24.30
2023-03-02T02:12:23.842Z,23.90
2023-03-02T02:14:55.917Z,24.67
2023-03-02T02:17:26.722Z,24.17
2023-03-02T02:20:21.121Z,22.90
2023-03-02T02:23:19.650Z,24.65
2023-03-02T02:25:55.692Z,23.13
2023-03-02T02:29:12.374Z,24.92
2023-03-02T02:31:59.463Z,22.80
2023-03-02T02:34:46.622Z,24.77
2023-03-02T02:37:50.674Z,25.00
2023-03-02T02:41:00.203Z,23.05
2023-03-02T02:43:33.709Z,22.98
2023-03-02T02:46:04.625Z,24.27
2023-03-02T02:48:35.555Z,23.63
2023-03-02T02:51:16.646Z,23.02
2023-03-02T02:53:59.887Z,24.55
2023-03-02T02:56:39.084Z,23.42
2023-03-02T02:59:24.891Z,22.98
2023-03-02T03:01:58.566Z,22.20
2023-03-02T03:04:32.851Z,23.40
2023-03-02T03:07:07.079Z,25.33
2023-03-02T03:09:37.216Z,23.48
2023-03-02T03:12:25.152Z,21.77
2023-03-02T03:14:55.853Z,23.10
2023-03-02T03:17:25.432Z,23.73
2023-03-02T03:19:53.932Z,23.25
2023-03-02T03:22:22.203Z,22.35
2023-03-02T03:24:50.675Z,21.67
2023-03-02T03:27:19.057Z,22.27
2023-03-02T03:29:48.500Z,20.75
2023-03-02T03:32:16.961Z,21.20
2023-03-02T03:34:45.647Z,21.73
2023-03-02T03:37:19.568Z,22.73
2023-03-02T03:39:49.670Z,21.27
2023-03-02T03:42:20.026Z,22.60
2023-03-02T03:44:50.131Z,19.98
2023-03-02T03:47:20.225Z,21.20
2023-03-02T03:49:50.442Z,20.77
2023-03-02T03:52:30.456Z,22.63
2023-03-02T03:55:02.610Z,20.63
2023-03-02T03:57:32.705Z,19.83
2023-03-02T04:00:10.618Z,20.52
2023-03-02T04:02:42.226Z,20.65
2023-03-02T04:05:14.265Z,18.90
2023-03-02T04:07:44.464Z,20.45
2023-03-02T04:10:14.715Z,19.95
2023-03-02T04:12:45.180Z,19.48
2023-03-02T04:15:17.713Z,20.60
2023-03-02T04:17:47.806Z,19.45
2023-03-02T04:20:21.920Z,21.35
2023-03-02T04:22:57.506Z,19.85
2023-03-02T04:25:31.138Z,19.80
2023-03-02T04:28:00.387Z,19.77
2023-03-02T04:30:30.301Z,19.75
2023-03-02T04:33:00.434Z,21.40
2023-03-02T04:35:30.524Z,18.67
2023-03-02T04:38:00.350Z,19.90
2023-03-02T04:40:30.374Z,18.83
2023-03-02T04:43:00.142Z,20.20
2023-03-02T04:45:29.980Z,20.08
2023-03-02T04:47:59.992Z,20.30
2023-03-02T04:50:30.360Z,20.38
2023-03-02T04:53:00.621Z,19.52
2023-03-02T04:55:30.654Z,19.92
2023-03-02T04:58:00.457Z,21.08
2023-03-02T05:00:29.208Z,21.15
2023-03-02T05:02:58.425Z,20.48
2023-03-02T05:05:26.981Z,21.60
2023-03-02T05:07:55.343Z,22.90
2023-03-02T05:10:23.667Z,23.90
2023-03-02T05:12:55.068Z,21.80
2023-03-02T05:15:36.879Z,22.77
2023-03-02T05:18:08.911Z,21.67
2023-03-02T05:20:37.652Z,20.40
2023-03-02T05:23:11.664Z,23.00
2023-03-02T05:25:39.314Z,21.02
2023-03-02T05:28:07.143Z,21.05
2023-03-02T05:30:37.863Z,21.05
2023-03-02T05:33:07.364Z,22.10
2023-03-02T05:35:37.699Z,19.92
2023-03-02T05:38:07.467Z,22.20
2023-03-02T05:40:38.231Z,20.65
2023-03-02T05:43:08.600Z,20.15
2023-03-02T05:45:39.094Z,21.80
2023-03-02T05:48:12.201Z,21.08
2023-03-02T05:50:42.384Z,21.92
2023-03-02T05:53:11.747Z,21.50
2023-03-02T05:55:40.167Z,21.52
2023-03-02T05:58:14.969Z,22.60
2023-03-02T06:00:44.160Z,22.20
2023-03-02T06:03:11.859Z,24.00
2023-03-02T06:05:40.512Z,22.42
2023-03-02T06:08:08.416Z,22.13
2023-03-02T06:10:36.845Z,21.80
2023-03-02T06:13:05.212Z,22.33
2023-03-02T06:15:33.553Z,21.63
2023-03-02T06:18:00.858Z,21.95
2023-03-02T06:20:30.513Z,24.20
2023-03-02T06:23:00.470Z,22.50
2023-03-02T06:25:30.237Z,23.77
2023-03-02T06:28:00.091Z,22.10
2023-03-02T06:30:30.247Z,23.05
2023-03-02T06:33:00.004Z,20.75
2023-03-02T06:35:30.106Z,23.17
2023-03-02T06:38:00.053Z,23.45
2023-03-02T06:40:30.325Z,23.35
2023-03-02T06:43:03.855Z,22.92
2023-03-02T06:45:37.887Z,23.73
2023-03-02T06:48:07.980Z,26.20
2023-03-02T06:50:36.358Z,25.88
2023-03-02T06:53:03.587Z,23.25
2023-03-02T06:55:33.412Z,25.30
2023-03-02T06:58:03.114Z,25.08
2023-03-02T07:00:32.766Z,24.00
2023-03-02T07:03:02.630Z,23.40
2023-03-02T07:05:32.433Z,24.90
2023-03-02T07:08:02.869Z,23.63
2023-03-02T07:10:33.425Z,24.90
2023-03-02T07:13:03.220Z,25.20
2023-03-02T07:15:32.761Z,25.45
2023-03-02T07:18:02.471Z,27.45
2023-03-02T07:20:32.269Z,27.38
2023-03-02T07:23:02.098Z,27.00
2023-03-02T07:25:32.689Z,31.75
2023-03-02T07:28:02.693Z,30.40
2023-03-02T07:30:32.453Z,32.38
2023-03-02T07:33:02.295Z,31.17
2023-03-02T07:35:32.154Z,30.50
2023-03-02T07:38:01.975Z,32.72
2023-03-02T07:40:31.797Z,33.75
2023-03-02T07:43:01.608Z,33.03
2023-03-02T07:45:31.329Z,32.38
2023-03-02T07:48:01.088Z,32.33
2023-03-02T07:50:32.549Z,32.20
2023-03-02T07:53:01.143Z,33.30
2023-03-02T07:55:31.159Z,31.35
2023-03-02T07:58:00.844Z,30.70
2023-03-02T08:00:30.551Z,30.42
2023-03-02T08:03:00.464Z,29.35
2023-03-02T08:05:31.259Z,29.58
2023-03-02T08:08:00.574Z,30.00
2023-03-02T08:10:30.295Z,28.65
2023-03-02T08:13:00.105Z,29.05
2023-03-02T08:15:29.862Z,30.70
2023-03-02T08:17:59.698Z,31.58
2023-03-02T08:20:29.656Z,28.13
2023-03-02T08:22:59.438Z,31.33
2023-03-02T08:25:29.308Z,29.00
2023-03-02T08:27:59.131Z,30.00
2023-03-02T08:30:28.905Z,29.88
2023-03-02T08:32:58.824Z,29.65
2023-03-02T08:35:31.509Z,30.10
2023-03-02T08:38:01.469Z,29.70
2023-03-02T08:40:29.158Z,30.52
2023-03-02T08:42:59.112Z,31.52
2023-03-02T08:45:29.191Z,31.63
2023-03-02T08:47:59.035Z,30.85
2023-03-02T08:50:28.792Z,30.75
2023-03-02T08:52:58.613Z,33.05
2023-03-02T08:55:28.362Z,33.28
2023-03-02T08:57:58.291Z,34.75
2023-03-02T09:00:26.771Z,37.75
2023-03-02T09:02:55.175Z,37.58
2023-03-02T09:05:23.631Z,38.20
2023-03-02T09:07:52.017Z,39.88
2023-03-02T09:10:20.669Z,40.20
2023-03-02T09:12:48.947Z,42.47
2023-03-02T09:15:17.678Z,42.72
2023-03-02T09:17:45.985Z,40.75
2023-03-02T09:20:14.817Z,42.50
2023-03-02T09:22:48.584Z,44.33
2023-03-02T09:25:19.409Z,42.45
2023-03-02T09:27:48.912Z,41.67
2023-03-02T09:30:19.133Z,39.78
2023-03-02T09:32:49.345Z,42.53
2023-03-02T09:35:19.419Z,41.70
2023-03-02T09:37:49.169Z,44.15
2023-03-02T09:40:28.164Z,44.97
2023-03-02T09:43:36.362Z,44.40
2023-03-02T09:46:28.920Z,44.40
2023-03-02T09:49:26.019Z,40.72
2023-03-02T09:51:58.801Z,42.25
2023-03-02T09:54:31.093Z,42.55
2023-03-02T09:57:03.644Z,42.65
2023-03-02T09:59:48.563Z,38.05
2023-03-02T10:02:27.404Z,41.28
2023-03-02T10:05:04.641Z,39.63
2023-03-02T10:07:40.172Z,38.92
2023-03-02T10:10:40.287Z,40.15
2023-03-02T10:13:48.146Z,38.05
2023-03-02T10:16:39.926Z,38.03
2023-03-02T10:19:46.670Z,37.00
2023-03-02T10:22:53.065Z,36.63
2023-03-02T10:25:52.495Z,35.22
2023-03-02T10:28:47.183Z,33.70
2023-03-02T10:31:33.590Z,35.15
2023-03-02T10:34:03.744Z,35.50
2023-03-02T10:36:47.752Z,33.75
2023-03-02T10:39:19.640Z,34.67
2023-03-02T10:42:29.974Z,34.28
2023-03-02T10:45:26.357Z,34.78
2023-03-02T10:48:11.955Z,30.05
2023-03-02T10:50:44.577Z,30.83
2023-03-02T10:53:19.111Z,29.85
2023-03-02T10:55:53.596Z,30.83
2023-03-02T10:58:34.693Z,30.63
2023-03-02T11:01:18.611Z,31.23
2023-03-02T11:04:15.881Z,32.05
2023-03-02T11:06:45.959Z,29.92
2023-03-02T11:09:16.091Z,29.70
2023-03-02T11:11:57.200Z,29.20
2023-03-02T11:14:27.424Z,27.13
2023-03-02T11:17:02.455Z,24.80
2023-03-02T11:19:42.682Z,25.65
2023-03-02T11:22:36.008Z,27.13
2023-03-02T11:26:10.881Z,30.08
2023-03-02T11:29:04.003Z,29.33
2023-03-02T11:31:50.027Z,29.05
2023-03-02T11:34:36.118Z,26.77
2023-03-02T11:37:34.923Z,25.63
2023-03-02T11:40:31.437Z,24.65
2023-03-02T11:43:06.422Z,25.13
2023-03-02T11:45:46.522Z,25.40
2023-03-02T11:48:49.092Z,23.55
2023-03-02T11:51:33.588Z,23.88
2023-03-02T11:54:52.952Z,23.38
2023-03-02T11:57:50.488Z,23.70
2023-03-02T12:00:43.180Z,22.45
2023-03-02T12:03:32.792Z,20.02
2023-03-02T12:06:22.862Z,20.13
2023-03-02T12:09:09.126Z,20.58
2023-03-02T12:11:45.993Z,19.83
2023-03-02T12:14:38.797Z,18.92
2023-03-02T12:17:26.977Z,20.33
2023-03-02T12:20:22.463Z,18.42
2023-03-02T12:22:54.210Z,20.23
2023-03-02T12:25:42.232Z,18.58
2023-03-02T12:28:40.104Z,18.42
2023-03-02T12:31:14.140Z,17.00
2023-03-02T12:33:51.701Z,16.63
2023-03-02T12:36:40.650Z,16.98
2023-03-02T12:39:48.936Z,18.58
2023-03-02T12:42:48.200Z,16.65
2023-03-02T12:46:19.431Z,18.38
2023-03-02T12:49:18.944Z,18.00
2023-03-02T12:52:22.169Z,17.20
2023-03-02T12:55:19.222Z,15.77
2023-03-02T12:57:55.518Z,15.25
2023-03-02T13:03:03.178Z,15.52
2023-03-02T13:05:36.922Z,16.05
2023-03-02T13:08:21.299Z,15.82
2023-03-02T13:10:55.307Z,14.35
2023-03-02T13:13:45.240Z,15.48
2023-03-02T13:16:25.039Z,14.48
2023-03-02T13:19:16.645Z,15.60
2023-03-02T13:21:46.956Z,14.43
2023-03-02T13:24:59.154Z,14.38
2023-03-02T13:27:31.388Z,14.43
2023-03-02T13:30:33.093Z,14.52
2023-03-02T13:33:21.276Z,15.32
2023-03-02T13:35:52.045Z,15.05
2023-03-02T13:38:32.824Z,16.27
2023-03-02T13:41:04.018Z,15.90
2023-03-02T13:43:40.228Z,18.55
2023-03-02T13:46:16.277Z,19.52
2023-03-02T13:49:10.657Z,18.70
2023-03-02T13:51:47.310Z,18.30
2023-03-02T13:54:33.220Z,18.73
2023-03-02T13:57:06.402Z,18.15
2023-03-02T13:59:36.741Z,18.90
2023-03-02T14:02:30.877Z,16.55
2023-03-02T14:05:01.024Z,14.35
2023-03-02T14:07:31.107Z,13.25
2023-03-02T14:10:01.140Z,16.08
2023-03-02T14:12:33.744Z,14.25
2023-03-02T14:15:05.111Z,16.85
2023-03-02T14:17:35.784Z,17.27
2023-03-02T14:20:07.424Z,16.75
2023-03-02T14:22:37.570Z,16.35
2023-03-02T14:25:08.568Z,14.68
2023-03-02T14:27:40.685Z,14.43
2023-03-02T14:30:20.750Z,14.90
2023-03-02T14:32:51.232Z,13.35
2023-03-02T14:35:25.842Z,14.32
2023-03-02T14:37:56.072Z,15.60
2023-03-02T14:40:28.819Z,15.55
2023-03-02T14:42:58.901Z,16.20
2023-03-02T14:45:30.851Z,16.15
2023-03-02T14:48:01.177Z,15.15
2023-03-02T14:50:40.804Z,15.30
2023-03-02T14:53:27.994Z,17.00
2023-03-02T14:55:58.823Z,17.17
2023-03-02T14:58:34.816Z,17.38
2023-03-02T15:01:04.971Z,18.50
2023-03-02T15:03:35.131Z,16.02
2023-03-02T15:06:27.876Z,16.85
2023-03-02T15:09:01.163Z,16.25
2023-03-02T15:11:31.910Z,16.95
2023-03-02T15:14:02.149Z,17.70
2023-03-02T15:16:32.234Z,15.23
2023-03-02T15:19:02.291Z,15.00
2023-03-02T15:21:32.911Z,13.48
2023-03-02T15:24:03.738Z,13.70
2023-03-02T15:26:33.784Z,13.55
2023-03-02T15:29:03.863Z,14.48
2023-03-02T15:31:34.359Z,15.25
2023-03-02T15:34:04.719Z,16.33
2023-03-02T15:36:33.778Z,16.38
2023-03-02T15:39:01.742Z,18.13
2023-03-02T15:41:29.931Z,19.25
2023-03-02T15:43:58.271Z,19.73
2023-03-02T15:46:27.286Z,21.95
2023-03-02T15:48:55.895Z,21.92
2023-03-02T15:51:24.786Z,23.20
2023-03-02T15:53:52.499Z,24.38
2023-03-02T15:56:21.176Z,20.77
2023-03-02T15:58:50.548Z,21.65
2023-03-02T16:01:18.120Z,22.95
2023-03-02T16:03:46.457Z,20.45
2023-03-02T16:06:16.085Z,20.77
2023-03-02T16:08:43.185Z,19.98
2023-03-02T16:11:13.078Z,23.25
2023-03-02T16:13:43.167Z,21.80
2023-03-02T16:16:13.237Z,23.48
2023-03-02T16:18:43.310Z,23.40
2023-03-02T16:21:14.244Z,26.58
2023-03-02T16:23:44.478Z,27.30
2023-03-02T16:26:19.603Z,26.75
2023-03-02T16:28:48.601Z,27.05
2023-03-02T16:31:20.725Z,30.77
2023-03-02T16:33:51.265Z,32.33
2023-03-02T16:36:22.330Z,33.92
2023-03-02T16:38:51.061Z,31.75
2023-03-02T16:41:23.935Z,33.90
2023-03-02T16:43:57.791Z,33.95
2023-03-02T16:46:32.816Z,36.05
2023-03-02T16:49:05.119Z,36.88
2023-03-02T16:51:35.764Z,37.90
2023-03-02T16:54:06.783Z,39.03
2023-03-02T16:56:37.017Z,43.45
2023-03-02T16:59:07.211Z,42.30
2023-03-02T17:01:37.537Z,46.30
2023-03-02T17:04:08.074Z,49.03
2023-03-02T17:06:40.152Z,48.28
2023-03-02T17:09:13.541Z,46.22
2023-03-02T17:11:43.875Z,44.53
2023-03-02T17:14:13.919Z,50.33
2023-03-02T17:16:44.002Z,46.92
2023-03-02T17:19:14.064Z,49.80
2023-03-02T17:21:44.263Z,46.10
2023-03-02T17:24:14.507Z,46.70
2023-03-02T17:26:46.980Z,46.40
2023-03-02T17:29:17.037Z,48.90
2023-03-02T17:31:47.135Z,48.70
2023-03-02T17:34:17.468Z,46.80
2023-03-02T17:36:47.650Z,47.80
2023-03-02T17:39:17.746Z,49.97
2023-03-02T17:41:47.815Z,46.97
2023-03-02T17:44:17.973Z,47.22
2023-03-02T17:46:48.194Z,48.53
2023-03-02T17:49:18.373Z,46.38
2023-03-02T17:51:48.490Z,41.40
2023-03-02T17:54:18.609Z,41.15
2023-03-02T17:56:49.222Z,40.75
2023-03-02T17:59:19.319Z,41.72
2023-03-02T18:01:49.413Z,41.88
2023-03-02T18:04:18.213Z,40.90
2023-03-02T18:06:46.209Z,41.15
2023-03-02T18:09:14.930Z,41.72
2023-03-02T18:11:45.285Z,40.47
2023-03-02T18:14:20.298Z,40.35
2023-03-02T18:16:50.328Z,38.60
2023-03-02T18:19:20.452Z,38.63
2023-03-02T18:21:50.500Z,37.92
2023-03-02T18:24:20.676Z,36.00
2023-03-02T18:26:50.921Z,37.25
2023-03-02T18:29:22.630Z,35.17
2023-03-02T18:31:53.324Z,31.70
2023-03-02T18:34:23.843Z,33.03
2023-03-02T18:36:53.971Z,34.00
2023-03-02T18:39:24.131Z,32.50
2023-03-02T18:41:54.218Z,32.13
2023-03-02T18:44:28.047Z,32.58
2023-03-02T18:46:56.392Z,33.38
2023-03-02T18:49:25.039Z,33.15
2023-03-02T18:51:53.090Z,33.67
2023-03-02T18:54:21.560Z,31.77
2023-03-02T18:56:49.623Z,29.70
2023-03-02T18:59:18.930Z,34.90
2023-03-02T19:01:47.278Z,29.40
2023-03-02T19:04:17.648Z,29.15
2023-03-02T19:06:47.822Z,29.80
2023-03-02T19:09:18.008Z,30.55
2023-03-02T19:11:48.267Z,30.60
2023-03-02T19:14:18.587Z,77.93
2023-03-02T19:16:49.145Z,30.20
2023-03-02T19:19:19.506Z,27.48
2023-03-02T19:21:49.835Z,29.88
2023-03-02T19:24:19.961Z,29.70
2023-03-02T19:26:50.975Z,51.05
2023-03-02T19:29:22.963Z,30.67
2023-03-02T19:31:53.716Z,27.00
2023-03-02T19:34:24.252Z,25.50
2023-03-02T19:36:54.294Z,25.42
2023-03-02T19:39:24.340Z,23.35
2023-03-02T19:41:54.605Z,27.02
2023-03-02T19:44:25.893Z,23.40
2023-03-02T19:46:56.104Z,20.52
2023-03-02T19:49:26.390Z,20.98
2023-03-02T19:51:56.450Z,21.73
2023-03-02T19:54:27.504Z,40.67
2023-03-02T19:56:57.657Z,28.55
2023-03-02T19:59:27.794Z,42.53
2023-03-02T20:01:59.574Z,38.85
2023-03-02T20:04:29.752Z,28.58
2023-03-02T20:07:00.236Z,26.58
2023-03-02T20:09:30.481Z,34.85
2023-03-02T20:12:02.575Z,28.35
2023-03-02T20:14:34.950Z,27.15
2023-03-02T20:17:05.555Z,24.75
2023-03-02T20:19:35.639Z,24.83
2023-03-02T20:22:06.951Z,25.15
2023-03-02T20:24:38.464Z,24.42
2023-03-02T20:27:11.626Z,24.50
2023-03-02T20:29:43.648Z,23.88
2023-03-02T20:32:15.349Z,23.38
2023-03-02T20:34:45.845Z,22.50
2023-03-02T20:37:16.582Z,23.05
2023-03-02T20:39:49.616Z,29.35
2023-03-02T20:42:21.332Z,22.33
2023-03-02T20:44:52.236Z,22.40
2023-03-02T20:47:22.785Z,25.05
2023-03-02T20:49:50.331Z,21.30
2023-03-02T20:52:20.573Z,23.30
2023-03-02T20:54:50.354Z,22.55
2023-03-02T20:57:23.983Z,27.90
2023-03-02T20:59:53.315Z,26.40
2023-03-02T21:02:21.632Z,28.25
2023-03-02T21:04:51.193Z,27.13
2023-03-02T21:07:21.007Z,25.48
2023-03-02T21:09:51.014Z,27.95
2023-03-02T21:12:21.221Z,27.08
2023-03-02T21:14:51.150Z,27.38
2023-03-02T21:17:23.423Z,29.50
2023-03-02T21:19:51.068Z,33.85
2023-03-02T21:22:21.337Z,28.52
2023-03-02T21:24:52.998Z,29.67
2023-03-02T21:27:23.207Z,28.80
2023-03-02T21:29:53.124Z,26.38
2023-03-02T21:32:23.158Z,27.88
2023-03-02T21:34:52.821Z,26.45
2023-03-02T21:37:22.706Z,25.88
2023-03-02T21:39:52.956Z,28.90
2023-03-02T21:42:22.772Z,27.60
2023-03-02T21:44:50.613Z,26.25
2023-03-02T21:47:19.054Z,26.48
2023-03-02T21:49:48.019Z,25.42
2023-03-02T21:52:15.968Z,25.48
2023-03-02T21:54:44.295Z,21.00
2023-03-02T21:57:12.783Z,23.83
2023-03-02T21:59:41.091Z,24.58
2023-03-02T22:02:12.615Z,21.52
2023-03-02T22:04:41.286Z,21.23
2023-03-02T22:07:09.329Z,20.77
2023-03-02T22:09:37.851Z,22.73
2023-03-02T22:12:16.080Z,20.20
2023-03-02T22:14:46.144Z,21.92
2023-03-02T22:17:24.691Z,23.58
2023-03-02T22:19:54.949Z,25.27
2023-03-02T22:22:30.499Z,23.73
2023-03-02T22:25:00.676Z,24.67
2023-03-02T22:27:34.759Z,37.55
2023-03-02T22:30:17.444Z,23.58
2023-03-02T22:32:48.867Z,23.40
2023-03-02T22:35:26.295Z,22.85
2023-03-02T22:38:24.093Z,22.58
2023-03-02T22:40:57.283Z,21.23
2023-03-02T22:43:35.119Z,23.45
2023-03-02T22:46:20.382Z,18.88
2023-03-02T22:48:53.577Z,20.20
2023-03-02T22:51:30.818Z,20.63
2023-03-02T22:54:01.107Z,19.35
2023-03-02T22:56:43.004Z,19.98
2023-03-02T22:59:37.555Z,20.50
2023-03-02T23:02:22.422Z,18.55
2023-03-02T23:04:52.585Z,19.20
2023-03-02T23:07:23.363Z,19.25
2023-03-02T23:09:53.557Z,17.73
2023-03-02T23:12:28.284Z,18.90
2023-03-02T23:14:59.631Z,20.77
2023-03-02T23:17:41.737Z,22.40
2023-03-02T23:20:14.831Z,19.58
2023-03-02T23:22:44.943Z,18.52
2023-03-02T23:25:15.879Z,20.48
2023-03-02T23:27:45.985Z,20.45
2023-03-02T23:30:18.303Z,19.88
2023-03-02T23:32:48.702Z,20.38
2023-03-02T23:35:18.555Z,19.33
2023-03-02T23:37:48.505Z,19.25
2023-03-02T23:40:21.611Z,20.08
2023-03-02T23:42:51.269Z,20.60
2023-03-02T23:45:19.686Z,20.52
2023-03-02T23:47:48.087Z,22.02
2023-03-02T23:50:16.447Z,20.83
2023-03-02T23:52:44.847Z,19.48
2023-03-02T23:55:13.234Z,19.23
2023-03-02T23:57:41.546Z,19.92
